Time;durP1;ratioP1;P1;durP2;ratioP2;P2;SDS_P1;SDS_P2;PMS_P1;PMS_P2;Temp;Humidity;BMP_temperature;BMP_pressure;BME280_temperature;BME280_humidity;BME280_pressure;Samples;Min_cycle;Max_cycle;Signal;HPM_P1;HPM_P2
2022/07/25 00:03:59;;;;;;;9.63;5.15;;;;;;;14.23;79.72;99321.17;4055344;86;21174;-82
2022/07/25 00:10:01;;;;;;;7.08;5.28;;;;;;;14.09;79.75;99332.16;3989948;87;21554;-82
2022/07/25 00:16:03;;;;;;;8.63;5.17;;;;;;;13.98;79.93;99334.70;3992496;87;21062;-83
2022/07/25 00:22:05;;;;;;;8.28;4.97;;;;;;;13.81;80.26;99334.83;3986452;87;22087;-82
2022/07/25 00:28:06;;;;;;;5.87;4.53;;;;;;;13.75;80.78;99330.11;4028435;87;21594;-82
2022/07/25 00:34:08;;;;;;;6.70;4.30;;;;;;;13.76;81.04;99322.84;4070908;86;21106;-82
2022/07/25 00:40:11;;;;;;;5.33;4.05;;;;;;;13.75;81.41;99317.73;3985461;87;22195;-82
2022/07/25 00:46:17;;;;;;;7.15;4.50;;;;;;;13.73;81.60;99324.97;4034069;85;21094;-82
2022/07/25 00:52:20;;;;;;;6.45;4.28;;;;;;;13.65;81.56;99323.39;4139226;84;21010;-83
2022/07/25 00:58:27;;;;;;;5.42;4.60;;;;;;;13.48;81.79;99323.31;4126794;86;21665;-81
2022/07/25 01:04:33;;;;;;;6.13;4.13;;;;;;;13.37;82.19;99319.72;4073546;86;21673;-81
2022/07/25 01:10:37;;;;;;;9.18;4.65;;;;;;;13.33;82.28;99307.32;4118621;84;21595;-82
2022/07/25 01:16:40;;;;;;;6.85;5.00;;;;;;;13.21;82.59;99300.79;4144301;84;21088;-82
2022/07/25 01:22:42;;;;;;;6.30;5.50;;;;;;;13.17;82.91;99292.33;4064362;86;21641;-82
2022/07/25 01:28:43;;;;;;;12.10;5.85;;;;;;;13.24;83.74;99294.52;4082501;84;21591;-81
2022/07/25 01:34:47;;;;;;;6.05;4.20;;;;;;;13.10;83.54;99282.66;4136132;84;21088;-82
2022/07/25 01:40:49;;;;;;;4.72;3.95;;;;;;;13.15;84.52;99280.92;3974764;87;21217;-82
2022/07/25 01:46:54;;;;;;;5.47;4.30;;;;;;;13.18;84.31;99287.81;4132892;84;21849;-81
2022/07/25 01:52:59;;;;;;;5.10;4.08;;;;;;;13.11;84.13;99282.88;4005013;87;22005;-81
2022/07/25 01:59:00;;;;;;;4.90;4.28;;;;;;;12.93;84.21;99283.31;4029986;87;21076;-81
2022/07/25 02:05:04;;;;;;;5.12;3.60;;;;;;;12.81;84.20;99283.63;4024587;87;21642;-81
2022/07/25 02:11:05;;;;;;;5.30;4.15;;;;;;;12.71;84.30;99276.09;4003728;88;21170;-81
2022/07/25 02:17:08;;;;;;;5.33;3.65;;;;;;;12.57;84.26;99273.44;4001470;88;21549;-82
2022/07/25 02:23:10;;;;;;;5.33;3.77;;;;;;;12.57;85.03;99281.67;4066999;86;21126;-82
2022/07/25 02:29:12;;;;;;;4.97;3.90;;;;;;;12.50;85.02;99274.77;4072710;86;21910;-83
2022/07/25 02:35:16;;;;;;;5.45;3.70;;;;;;;12.46;85.18;99277.29;4030500;87;21072;-82
2022/07/25 02:41:19;;;;;;;5.12;3.90;;;;;;;12.41;85.46;99280.38;4016299;86;35582;-81
2022/07/25 02:47:22;;;;;;;6.22;3.87;;;;;;;12.41;85.66;99279.81;3965447;87;21157;-81
2022/07/25 02:53:23;;;;;;;5.80;4.10;;;;;;;12.22;85.61;99284.72;3981741;87;21116;-81
2022/07/25 02:59:25;;;;;;;6.85;4.70;;;;;;;12.20;86.09;99285.70;3983855;87;21038;-82
2022/07/25 03:05:26;;;;;;;6.62;5.03;;;;;;;12.22;86.24;99287.47;3979014;84;21031;-82
2022/07/25 03:11:28;;;;;;;5.20;3.85;;;;;;;12.21;86.36;99284.53;4114210;85;21538;-81
2022/07/25 03:17:29;;;;;;;7.83;4.20;;;;;;;12.17;86.49;99274.88;4004200;87;21594;-81
2022/07/25 03:23:31;;;;;;;7.12;4.00;;;;;;;12.10;86.36;99283.64;3954945;88;21041;-81
2022/07/25 03:29:32;;;;;;;5.97;4.65;;;;;;;11.98;86.76;99286.06;3973421;88;21055;-81
2022/07/25 03:35:35;;;;;;;5.42;3.80;;;;;;;11.95;86.84;99288.19;4016236;86;21037;-82
2022/07/25 03:41:36;;;;;;;9.85;4.17;;;;;;;11.95;87.61;99292.91;3986743;88;21611;-81
2022/07/25 03:47:38;;;;;;;7.95;4.47;;;;;;;11.99;87.70;99298.63;4086110;86;21666;-82
2022/07/25 04:00:05;;;;;;;7.50;5.12;;;;;;;12.13;88.05;99300.72;4110196;86;21640;-83
2022/07/25 04:06:07;;;;;;;5.17;4.08;;;;;;;12.19;88.67;99286.85;4100904;86;21139;-82
2022/07/25 04:12:10;;;;;;;8.60;4.53;;;;;;;12.29;88.97;99282.05;4017063;87;21023;-81
2022/07/25 04:18:12;;;;;;;7.08;4.55;;;;;;;12.58;89.21;99278.36;4045409;87;21902;-83
2022/07/25 04:24:14;;;;;;;7.62;5.25;;;;;;;12.70;89.50;99274.53;4035811;86;21158;-83
2022/07/25 04:30:16;;;;;;;6.97;4.75;;;;;;;12.73;89.75;99275.94;4027691;87;22003;-83
2022/07/25 04:36:20;;;;;;;7.20;5.53;;;;;;;12.89;90.28;99270.91;4037666;84;31613;-83
2022/07/25 04:42:21;;;;;;;7.80;6.08;;;;;;;13.14;90.31;99259.50;4106839;84;21624;-84
2022/07/25 04:48:25;;;;;;;8.23;5.53;;;;;;;13.28;90.60;99258.20;4112184;85;20983;-83
2022/07/25 04:54:28;;;;;;;11.73;5.35;;;;;;;13.38;90.59;99256.09;4109891;85;21841;-83
2022/07/25 05:00:31;;;;;;;5.87;4.80;;;;;;;13.61;90.52;99250.26;4125753;85;21013;-83
2022/07/25 05:06:38;;;;;;;9.75;5.10;;;;;;;13.81;90.16;99248.16;4119120;85;21083;-82
2022/07/25 05:12:41;;;;;;;9.00;5.72;;;;;;;14.01;89.93;99250.77;4063011;86;21051;-83
2022/07/25 05:18:42;;;;;;;6.12;5.25;;;;;;;14.22;89.61;99243.70;4134902;85;21027;-83
2022/07/25 05:24:44;;;;;;;11.90;6.03;;;;;;;14.40;89.57;99243.92;4130494;84;21076;-83
2022/07/25 05:30:45;;;;;;;9.08;5.72;;;;;;;14.59;89.36;99239.98;4123422;84;21064;-83
2022/07/25 05:36:46;;;;;;;10.13;6.08;;;;;;;14.86;89.18;99241.13;4132990;85;22298;-82
2022/07/25 05:42:48;;;;;;;13.80;6.37;;;;;;;15.22;88.98;99236.47;4114817;84;20969;-83
2022/07/25 05:48:49;;;;;;;10.60;4.85;;;;;;;15.52;88.64;99231.83;4130474;85;21025;-81
2022/07/25 05:54:50;;;;;;;9.28;4.67;;;;;;;15.73;87.96;99231.73;4124569;85;21811;-82
2022/07/25 06:00:52;;;;;;;7.50;4.22;;;;;;;15.94;87.49;99221.16;4088777;85;21064;-82
2022/07/25 06:06:53;;;;;;;6.45;3.80;;;;;;;16.16;86.80;99224.72;4116325;85;21048;-82
2022/07/25 06:12:54;;;;;;;6.60;3.60;;;;;;;16.39;86.38;99230.47;4148725;84;21120;-82
2022/07/25 06:18:56;;;;;;;7.65;3.83;;;;;;;16.62;86.05;99229.30;4143074;84;21610;-81
2022/07/25 06:24:57;;;;;;;5.28;3.45;;;;;;;16.85;86.01;99221.78;4146292;85;21005;-80
2022/07/25 06:30:58;;;;;;;4.90;3.83;;;;;;;17.15;85.69;99219.05;4086149;85;21031;-82
2022/07/25 06:37:01;;;;;;;7.80;4.33;;;;;;;17.43;85.36;99221.47;4153282;84;21021;-85
2022/07/25 06:43:02;;;;;;;7.90;3.98;;;;;;;17.73;85.04;99217.34;4081740;85;21007;-82
2022/07/25 06:49:03;;;;;;;7.17;4.50;;;;;;;18.03;84.65;99195.14;4159990;84;21032;-82
2022/07/25 06:55:07;;;;;;;8.80;3.87;;;;;;;18.37;84.26;99190.22;4156929;83;20973;-83
2022/07/25 07:01:08;;;;;;;5.55;4.35;;;;;;;18.80;83.82;99179.19;4140505;84;61632;-82
2022/07/25 07:07:10;;;;;;;6.70;3.35;;;;;;;19.35;82.96;99175.72;4103306;84;21124;-83
2022/07/25 07:13:16;;;;;;;5.17;3.35;;;;;;;19.92;81.93;99164.30;4088515;86;21515;-83
2022/07/25 07:19:17;;;;;;;5.60;3.10;;;;;;;20.41;81.23;99155.36;4075430;86;21599;-85
2022/07/25 07:25:22;;;;;;;5.90;3.47;;;;;;;20.81;80.60;99145.56;4082413;86;21021;-85
2022/07/25 07:31:25;;;;;;;5.87;2.98;;;;;;;21.37;79.51;99144.55;4070771;86;21019;-83
2022/07/25 07:37:27;;;;;;;5.20;3.30;;;;;;;21.91;78.26;99148.05;4083812;86;21086;-83
2022/07/25 07:43:32;;;;;;;3.87;2.58;;;;;;;22.57;76.61;99145.05;4065822;86;21023;-81
2022/07/25 07:49:34;;;;;;;3.33;2.33;;;;;;;23.05;75.81;99145.14;4073216;86;20999;-82
2022/07/25 07:55:46;;;;;;;3.62;2.55;;;;;;;23.67;74.41;99143.18;4083311;86;21516;-83
2022/07/25 08:01:51;;;;;;;5.40;2.85;;;;;;;24.32;73.64;99145.14;4070867;86;21008;-83
2022/07/25 08:07:53;;;;;;;3.75;2.77;;;;;;;24.61;71.18;99139.87;4088809;85;21075;-83
2022/07/25 08:13:54;;;;;;;2.70;2.22;;;;;;;25.08;69.89;99141.61;4133179;85;21051;-82
2022/07/25 08:19:56;;;;;;;3.22;2.27;;;;;;;24.91;65.98;99133.38;4146077;85;21028;-82
2022/07/25 08:25:59;;;;;;;5.85;2.47;;;;;;;24.99;65.88;99121.23;4101556;85;20986;-83
2022/07/25 08:32:04;;;;;;;3.98;2.10;;;;;;;25.23;64.61;99124.94;4081533;85;21010;-83
2022/07/25 08:38:10;;;;;;;2.75;2.00;;;;;;;25.18;62.83;99116.55;4114212;85;22267;-82
2022/07/25 08:44:14;;;;;;;1.72;1.60;;;;;;;25.23;62.31;99095.52;4116507;85;21107;-83
2022/07/25 08:50:19;;;;;;;1.98;1.47;;;;;;;25.31;58.84;99117.77;4114213;85;21099;-83
2022/07/25 08:56:21;;;;;;;2.87;1.65;;;;;;;25.29;57.62;99110.45;4113809;85;20994;-82
2022/07/25 09:02:22;;;;;;;2.30;1.80;;;;;;;25.39;57.38;99102.17;4113855;85;21981;-83
2022/07/25 09:08:27;;;;;;;1.47;1.30;;;;;;;25.44;56.68;99092.52;4081612;85;21125;-83
2022/07/25 09:14:28;;;;;;;1.47;1.20;;;;;;;25.45;55.85;99098.91;4089523;85;21052;-82
2022/07/25 09:20:44;;;;;;;1.62;1.00;;;;;;;25.57;52.87;99100.73;4079027;86;21050;-83
2022/07/25 09:26:54;;;;;;;1.57;1.35;;;;;;;25.65;53.32;99100.55;4075290;86;21693;-83
2022/07/25 09:33:01;;;;;;;3.92;1.40;;;;;;;26.04;52.42;99094.59;4061937;86;21067;-83
2022/07/25 09:39:05;;;;;;;1.82;1.32;;;;;;;26.39;51.53;99082.20;4076223;86;22308;-83
2022/07/25 09:45:11;;;;;;;2.83;1.20;;;;;;;27.03;51.34;99075.44;4072855;86;21052;-81
2022/07/25 09:51:13;;;;;;;1.20;0.78;;;;;;;27.21;46.18;99073.82;4077588;86;21033;-83
2022/07/25 09:57:15;;;;;;;2.58;1.10;;;;;;;27.22;46.78;99068.34;4076415;86;21036;-84
2022/07/25 10:04:13;;;;;;;1.72;1.10;;;;;;;27.93;46.41;99063.75;4086919;86;21658;-84
2022/07/25 10:10:29;;;;;;;1.75;1.05;;;;;;;28.31;45.80;99048.80;4090438;85;21039;-82
2022/07/25 10:27:16;;;;;;;1.87;1.22;;;;;;;28.61;44.83;99033.94;4536428;75;22174;-85
2022/07/25 10:33:18;;;;;;;2.25;1.40;;;;;;;28.69;43.98;99030.17;4502610;77;21016;-86
2022/07/25 10:39:22;;;;;;;2.40;1.17;;;;;;;29.17;40.89;99031.04;4474544;77;20948;-87
2022/07/25 10:45:27;;;;;;;2.08;1.10;;;;;;;29.21;41.16;99030.19;4515166;77;20997;-86
2022/07/25 10:51:33;;;;;;;1.13;1.03;;;;;;;29.20;40.20;99015.31;4506464;77;21050;-86
2022/07/25 10:57:35;;;;;;;1.65;1.40;;;;;;;29.71;40.78;99009.55;4503947;77;21505;-86
2022/07/25 11:03:36;;;;;;;2.52;0.85;;;;;;;30.12;40.02;99004.36;4510870;77;20995;-86
2022/07/25 11:09:38;;;;;;;2.33;1.00;;;;;;;30.44;39.79;99002.35;4515045;77;21033;-86
2022/07/25 11:15:41;;;;;;;1.12;0.80;;;;;;;30.43;37.97;98990.13;4473250;77;26998;-87
2022/07/25 11:21:49;;;;;;;1.52;0.90;;;;;;;31.11;38.67;98984.08;4253854;82;21531;-87
2022/07/25 11:27:59;;;;;;;3.40;1.42;;;;;;;31.51;38.53;98979.33;4234567;83;20993;-86
2022/07/25 11:34:01;;;;;;;2.02;1.00;;;;;;;31.89;37.56;98965.72;4229283;83;22179;-86
2022/07/25 11:40:04;;;;;;;1.20;1.10;;;;;;;32.23;37.35;98960.70;4229254;81;21058;-87
2022/07/25 11:46:07;;;;;;;2.17;1.10;;;;;;;32.45;36.68;98942.19;4244794;83;21606;-86
2022/07/25 11:52:29;;;;;;;1.82;1.12;;;;;;;32.44;36.29;98942.83;4227346;83;21057;-87
2022/07/25 11:58:30;;;;;;;1.17;1.07;;;;;;;32.14;31.10;98936.27;4235236;83;21101;-87
2022/07/25 12:04:31;;;;;;;1.60;1.12;;;;;;;31.47;33.70;98923.64;4238029;83;21065;-87
2022/07/25 12:10:34;;;;;;;1.65;1.00;;;;;;;31.52;33.82;98919.40;4241433;83;21021;-85
2022/07/25 12:16:36;;;;;;;2.90;1.10;;;;;;;31.32;33.95;98908.38;4232296;83;21040;-86
2022/07/25 12:22:37;;;;;;;2.62;1.22;;;;;;;30.87;34.24;98910.35;4250048;82;21093;-86
2022/07/25 12:28:39;;;;;;;1.20;1.00;;;;;;;30.32;34.04;98893.45;4254904;82;21066;-85
2022/07/25 12:34:42;;;;;;;1.45;1.12;;;;;;;30.16;33.99;98890.58;4243170;82;20974;-85
2022/07/25 12:40:43;;;;;;;1.90;1.35;;;;;;;29.56;33.72;98882.00;4249963;82;21018;-85
2022/07/25 12:46:45;;;;;;;1.92;1.27;;;;;;;29.50;33.67;98881.84;4241680;82;21451;-84
2022/07/25 12:52:48;;;;;;;3.12;1.10;;;;;;;29.29;33.42;98874.17;4256798;82;22098;-85
2022/07/25 12:58:49;;;;;;;2.42;1.05;;;;;;;29.08;34.57;98859.31;4247647;82;21011;-85
2022/07/25 13:04:51;;;;;;;1.50;1.15;;;;;;;29.08;35.18;98853.80;4245720;82;21522;-85
2022/07/25 13:10:52;;;;;;;3.05;1.15;;;;;;;28.98;35.33;98852.44;4245642;82;21065;-85
2022/07/25 13:16:53;;;;;;;1.57;1.22;;;;;;;28.89;35.63;98847.02;4251212;82;21014;-85
2022/07/25 13:22:54;;;;;;;1.40;1.30;;;;;;;28.82;36.10;98839.64;4245021;82;22005;-85
2022/07/25 13:28:57;;;;;;;4.50;1.80;;;;;;;28.74;34.85;98828.06;4235951;81;21031;-85
2022/07/25 13:34:58;;;;;;;1.45;1.35;;;;;;;28.62;35.94;98814.41;4238969;83;21058;-85
2022/07/25 13:41:01;;;;;;;1.65;1.50;;;;;;;28.38;36.14;98805.47;4241468;83;22035;-85
2022/07/25 13:47:03;;;;;;;2.62;1.15;;;;;;;28.39;36.57;98800.00;4230470;83;21576;-86
2022/07/25 13:53:05;;;;;;;2.52;1.37;;;;;;;28.36;37.53;98789.73;4231490;82;21085;-85
2022/07/25 13:59:07;;;;;;;3.45;1.20;;;;;;;28.25;37.40;98789.02;4230051;83;21109;-85
2022/07/25 14:05:08;;;;;;;2.22;1.30;;;;;;;28.19;37.90;98784.61;4236273;83;21042;-85
2022/07/25 14:11:10;;;;;;;3.40;1.20;;;;;;;28.18;38.11;98783.83;4242257;83;21048;-84
2022/07/25 14:17:11;;;;;;;3.35;1.55;;;;;;;28.16;38.08;98768.06;4236470;83;21402;-85
2022/07/25 14:23:13;;;;;;;2.22;1.32;;;;;;;28.19;37.97;98763.50;4246904;81;22075;-85
2022/07/25 14:29:14;;;;;;;1.65;1.30;;;;;;;28.19;37.43;98760.69;4239301;81;21008;-85
2022/07/25 14:35:16;;;;;;;1.82;1.32;;;;;;;28.11;37.54;98751.16;4250996;82;21114;-85
2022/07/25 14:41:17;;;;;;;1.22;1.02;;;;;;;28.07;37.86;98751.37;4249286;82;21625;-85
2022/07/25 14:47:21;;;;;;;1.32;1.17;;;;;;;28.05;38.07;98734.20;4256729;82;21093;-86
2022/07/25 14:53:22;;;;;;;2.45;1.40;;;;;;;28.13;36.51;98731.08;4240579;82;21583;-85
2022/07/25 14:59:23;;;;;;;2.17;1.20;;;;;;;28.18;36.70;98719.10;4236824;82;21606;-85
2022/07/25 15:05:25;;;;;;;1.57;1.20;;;;;;;28.19;36.80;98709.38;4248540;82;21124;-84
2022/07/25 15:11:26;;;;;;;4.55;1.20;;;;;;;28.18;37.02;98700.81;4250739;82;21476;-83
2022/07/25 15:17:28;;;;;;;1.45;1.20;;;;;;;28.12;36.83;98696.41;4251014;82;21057;-85
2022/07/25 15:23:29;;;;;;;1.52;1.42;;;;;;;28.08;37.34;98692.41;4250069;81;21053;-84
2022/07/25 15:29:30;;;;;;;2.35;1.25;;;;;;;28.08;37.16;98681.81;4234910;83;21048;-83
2022/07/25 15:35:31;;;;;;;2.67;1.40;;;;;;;28.10;36.33;98682.06;4239793;83;21583;-84
2022/07/25 15:41:34;;;;;;;2.58;1.30;;;;;;;28.18;34.39;98681.11;4238377;83;21614;-84
2022/07/25 15:47:35;;;;;;;5.08;1.50;;;;;;;28.08;35.90;98672.71;4283070;81;21892;-85
2022/07/25 15:53:36;;;;;;;4.78;1.40;;;;;;;27.94;36.55;98672.22;4240492;83;21029;-84
2022/07/25 15:59:38;;;;;;;2.05;1.22;;;;;;;27.80;36.97;98659.70;4238853;83;21910;-85
2022/07/25 16:05:41;;;;;;;4.58;1.30;;;;;;;27.75;36.85;98657.59;4232865;83;21061;-86
2022/07/25 16:11:43;;;;;;;3.37;1.20;;;;;;;27.69;37.17;98649.76;4231609;83;21042;-85
2022/07/25 16:17:44;;;;;;;4.22;1.60;;;;;;;27.54;37.77;98651.28;4245371;83;21025;-86
2022/07/25 16:23:46;;;;;;;1.95;1.35;;;;;;;27.44;37.82;98645.67;4236602;82;21010;-85
2022/07/25 16:29:47;;;;;;;2.33;1.60;;;;;;;27.38;37.86;98636.42;4227846;83;21517;-85
2022/07/25 16:35:49;;;;;;;5.55;1.50;;;;;;;27.33;38.08;98643.54;4233977;83;21084;-84
2022/07/25 16:41:51;;;;;;;1.57;1.37;;;;;;;27.21;38.44;98641.86;4237363;81;21046;-85
2022/07/25 16:47:52;;;;;;;2.42;1.37;;;;;;;27.09;38.68;98640.18;4383659;78;34705;-86
2022/07/25 16:53:54;;;;;;;4.05;1.60;;;;;;;26.98;38.74;98632.28;4390206;79;21035;-85
2022/07/25 16:59:55;;;;;;;4.45;1.42;;;;;;;26.87;39.03;98636.37;4407178;79;20957;-84
2022/07/25 17:05:57;;;;;;;2.17;1.57;;;;;;;26.75;39.19;98628.44;4401708;79;21084;-85
2022/07/25 17:11:58;;;;;;;4.15;2.80;;;;;;;26.63;39.58;98628.76;4392186;79;20997;-85
2022/07/25 17:18:00;;;;;;;4.87;2.30;;;;;;;26.49;39.92;98625.39;4407237;79;20977;-84
2022/07/25 17:24:02;;;;;;;5.00;2.02;;;;;;;26.36;40.13;98618.72;4386265;79;21995;-86
2022/07/25 17:30:05;;;;;;;4.20;1.40;;;;;;;25.99;40.89;98593.81;4388099;79;20969;-85
2022/07/25 17:36:07;;;;;;;1.42;1.32;;;;;;;25.98;40.95;98604.25;4384103;79;21009;-84
2022/07/25 17:42:10;;;;;;;3.22;1.62;;;;;;;25.98;40.95;98604.25;4374880;79;21015;-87
2022/07/25 17:48:12;;;;;;;3.10;1.50;;;;;;;25.85;41.31;98600.23;4363361;79;21092;-85
2022/07/25 17:54:13;;;;;;;3.40;1.60;;;;;;;25.71;41.58;98598.23;4381190;79;21561;-84
2022/07/25 18:00:15;;;;;;;4.22;1.40;;;;;;;25.55;42.02;98598.73;4254952;79;10000034;-84
2022/07/25 18:06:16;;;;;;;4.28;1.67;;;;;;;25.38;42.40;98595.67;4388242;79;21084;-84
2022/07/25 18:12:18;;;;;;;3.17;1.42;;;;;;;25.22;42.85;98594.71;4379238;79;20973;-84
2022/07/25 18:18:20;;;;;;;3.85;1.95;;;;;;;25.04;43.31;98592.73;4377403;79;21868;-84
2022/07/25 18:24:21;;;;;;;5.17;2.02;;;;;;;24.85;43.81;98594.14;4382250;79;21097;-85
2022/07/25 18:30:22;;;;;;;3.10;1.70;;;;;;;24.65;44.26;98587.12;4376755;79;21032;-84
2022/07/25 18:36:24;;;;;;;2.42;1.77;;;;;;;24.47;44.72;98578.09;4383684;79;21001;-85
2022/07/25 18:42:25;;;;;;;3.65;2.47;;;;;;;24.24;45.18;98574.05;4372871;79;21073;-84
2022/07/25 18:48:27;;;;;;;2.12;1.90;;;;;;;24.05;45.68;98573.27;4383666;79;21005;-84
2022/07/25 18:54:28;;;;;;;3.17;2.10;;;;;;;23.81;46.32;98573.81;4381991;79;20958;-84
2022/07/25 19:00:30;;;;;;;3.10;2.15;;;;;;;23.54;47.06;98571.92;4375660;79;20976;-84
2022/07/25 19:06:32;;;;;;;3.58;2.10;;;;;;;23.18;48.74;98572.01;4382510;79;21000;-84
2022/07/25 19:12:33;;;;;;;4.20;2.20;;;;;;;22.84;49.38;98575.95;4377295;79;20993;-83
2022/07/25 19:18:35;;;;;;;4.47;2.27;;;;;;;22.55;50.78;98574.89;4381700;79;22063;-84
2022/07/25 19:24:36;;;;;;;4.08;3.20;;;;;;;22.20;52.48;98570.19;4369569;79;20985;-84
2022/07/25 19:30:38;;;;;;;4.47;3.40;;;;;;;21.89;53.29;98570.11;4265580;79;10000341;-83
2022/07/25 19:36:39;;;;;;;9.85;4.45;;;;;;;21.63;53.53;98566.13;4282439;81;20983;-83
2022/07/25 19:42:41;;;;;;;6.42;4.40;;;;;;;21.41;53.84;98557.67;4212634;83;21040;-83
2022/07/25 19:48:43;;;;;;;8.33;3.80;;;;;;;21.19;54.98;98551.41;4263542;82;20987;-83
2022/07/25 19:54:44;;;;;;;10.48;4.10;;;;;;;20.99;56.42;98546.19;4264606;82;21065;-82
2022/07/25 20:00:46;;;;;;;6.67;4.12;;;;;;;20.83;56.23;98541.42;4263296;82;21039;-83
2022/07/25 20:06:48;;;;;;;14.47;5.25;;;;;;;20.75;56.31;98537.35;4285121;81;21062;-82
2022/07/25 20:12:50;;;;;;;8.05;4.65;;;;;;;20.61;56.51;98527.50;4259860;82;20957;-82
2022/07/25 20:18:51;;;;;;;8.78;5.08;;;;;;;20.43;57.25;98525.20;4255154;82;21011;-83
2022/07/25 20:24:53;;;;;;;6.60;4.25;;;;;;;20.22;58.09;98525.34;4261708;81;21581;-84
2022/07/25 20:30:54;;;;;;;6.50;4.37;;;;;;;20.07;58.39;98527.04;4262083;82;21039;-82
2022/07/25 20:36:55;;;;;;;8.90;4.28;;;;;;;19.95;58.50;98525.08;4264445;82;21065;-82
2022/07/25 20:42:57;;;;;;;7.50;4.42;;;;;;;19.92;58.82;98530.15;4263496;82;21035;-83
2022/07/25 20:48:58;;;;;;;10.00;5.08;;;;;;;19.83;59.77;98533.59;4264516;82;21024;-83
2022/07/25 20:54:59;;;;;;;10.98;5.15;;;;;;;19.82;59.83;98529.27;4253405;82;21096;-84
2022/07/25 21:01:00;;;;;;;8.20;4.80;;;;;;;19.74;60.22;98529.94;4264285;82;21027;-82
2022/07/25 21:07:03;;;;;;;6.22;4.28;;;;;;;19.60;60.88;98526.23;4275661;82;21058;-83
2022/07/25 21:13:04;;;;;;;6.92;4.97;;;;;;;19.38;61.61;98534.48;4284198;83;21001;-83
2022/07/25 21:19:06;;;;;;;10.25;5.10;;;;;;;19.20;61.93;98531.43;4264732;82;21049;-83
2022/07/25 21:25:08;;;;;;;8.50;4.50;;;;;;;19.04;62.85;98530.76;4256806;82;21088;-82
2022/07/25 21:31:11;;;;;;;9.03;5.45;;;;;;;18.91;63.00;98533.52;4262571;82;21035;-83
2022/07/25 21:37:12;;;;;;;8.38;5.08;;;;;;;18.73;63.70;98536.64;4253880;82;20989;-83
2022/07/25 21:43:13;;;;;;;12.43;5.85;;;;;;;18.59;64.40;98544.13;4265652;82;21068;-83
2022/07/25 21:55:35;;;;;;;9.00;5.97;;;;;;;18.44;65.56;98537.44;4263002;82;21008;-86
2022/07/25 22:01:37;;;;;;;9.20;5.92;;;;;;;18.23;65.80;98528.88;4261399;82;21043;-83
2022/07/25 22:07:39;;;;;;;10.63;5.85;;;;;;;18.12;65.86;98530.55;4235065;82;21033;-82
2022/07/25 22:13:40;;;;;;;9.18;5.25;;;;;;;17.95;66.60;98531.00;4260987;82;21044;-82
2022/07/25 22:19:41;;;;;;;9.15;5.78;;;;;;;17.78;67.32;98527.48;4259249;82;21072;-83
2022/07/25 22:25:42;;;;;;;9.20;5.28;;;;;;;17.65;67.85;98530.01;4256164;82;21049;-83
2022/07/25 22:31:44;;;;;;;10.08;5.47;;;;;;;17.51;68.19;98518.66;4252760;82;21059;-83
2022/07/25 22:37:45;;;;;;;6.75;4.58;;;;;;;17.53;69.05;98514.08;4282580;81;21851;-83
2022/07/25 22:43:47;;;;;;;7.28;4.80;;;;;;;17.51;69.90;98518.66;4255551;82;21048;-82
2022/07/25 22:49:48;;;;;;;8.95;5.37;;;;;;;17.57;69.61;98501.70;4227133;82;21090;-82
2022/07/25 22:55:49;;;;;;;9.03;5.15;;;;;;;17.35;69.67;98492.36;4255625;82;21026;-83
2022/07/25 23:01:50;;;;;;;7.10;5.55;;;;;;;17.30;70.39;98477.66;4258596;82;21038;-83
2022/07/25 23:07:53;;;;;;;9.40;5.65;;;;;;;17.08;70.49;98461.39;4265400;82;20985;-82
2022/07/25 23:13:55;;;;;;;9.48;6.45;;;;;;;16.95;71.47;98464.05;4265082;82;21003;-83
2022/07/25 23:19:56;;;;;;;9.23;5.50;;;;;;;16.92;72.17;98456.61;4255850;82;21037;-82
2022/07/25 23:25:57;;;;;;;7.55;5.20;;;;;;;16.92;72.53;98455.23;4260727;82;21614;-82
2022/07/25 23:31:59;;;;;;;7.37;5.28;;;;;;;16.86;72.51;98443.13;4260173;82;20982;-82
2022/07/25 23:38:01;;;;;;;8.40;4.87;;;;;;;16.73;73.18;98433.16;4263172;82;20965;-82
2022/07/25 23:44:03;;;;;;;9.08;4.92;;;;;;;16.65;73.85;98450.50;4260338;82;21000;-82
2022/07/25 23:50:05;;;;;;;6.17;4.70;;;;;;;16.67;74.10;98454.22;4253518;82;21106;-82
2022/07/25 23:56:07;;;;;;;7.62;4.37;;;;;;;16.71;74.45;98451.55;4255317;82;21057;-82
